»·PEaware :: IFL326 KEUG-KPDX

IFL326 :: KEUG-KPDX

FLIGHT INFORMATION

Flight Status: Arrived
Operator:
Interflug
More flights by this operator :: More flights under this callsign
Pilot: Erik S. (3779)
Aircraft: Unknown
(DC9)
More flights by this aircraft type
Origin: KEUG Mahlon Sweet
United States
Destination: KPDX Portland Intl
United States
More flights between these airports :: More routes between these airports
Route: +EUG9 CITYY TMBRS2
File this flight plan on PilotEdge
Remarks:
Altitude:
(Current/Filed)
15,000ft
Speed:
(Current/Filed)
380kts
Departed: 26-Oct-17 10:31 AM
Arrived: 26-Oct-17 11:08 AM
Distance/Time
Traveled:
91nm/0:37
Distance/Time
To Go:
Arrived

Flight Plot

Page will automatically refresh every two minutes.

Flight plan parsing failed; only flown route is shown


Map Options




Map Legend


Flown Route
Filed Route
Departure Airport
Arrival Airport
Navaid (VOR, NDB)
Fix

Horizontal Profiles

Position Reports

Time Latitude Longitude Heading Altitude Ground
Speed
26-Oct-17 10:26 44.116285 -123.215722 257 381ft 0kts
26-Oct-17 10:27 44.116285 -123.215722 257 381ft 0kts
26-Oct-17 10:28 44.116285 -123.215722 257 381ft 0kts
26-Oct-17 10:29 44.116285 -123.215722 257 381ft 0kts
26-Oct-17 10:30 44.116285 -123.215722 257 381ft 0kts
26-Oct-17 10:31 44.116285 -123.215722 257 381ft 0kts
26-Oct-17 10:32 44.116285 -123.215722 257 381ft 0kts
26-Oct-17 10:33 44.116271 -123.215809 257 381ft 2kts
26-Oct-17 10:34 44.114509 -123.216892 175 381ft 11kts
26-Oct-17 10:35 44.114286 -123.218834 359 381ft 10kts
26-Oct-17 10:36 44.141442 -123.219841 355 1281ft 161kts
26-Oct-17 10:37 44.193073 -123.226627 355 3441ft 225kts
26-Oct-17 10:38 44.260942 -123.233720 13 6395ft 258kts
26-Oct-17 10:39 44.289176 -123.146203 63 9520ft 274kts
26-Oct-17 10:40 44.337617 -123.055167 50 11346ft 327kts
26-Oct-17 10:41 44.393071 -122.952262 50 14114ft 344kts
26-Oct-17 10:42 44.466503 -122.863778 18 15026ft 375kts
26-Oct-17 10:43 44.564253 -122.814172 19 15019ft 373kts
26-Oct-17 10:44 44.661086 -122.763521 19 15024ft 371kts
26-Oct-17 10:45 44.754112 -122.714626 19 14995ft 347kts
26-Oct-17 10:46 44.841895 -122.684443 3 14774ft 327kts
26-Oct-17 10:47 44.933389 -122.675167 3 13091ft 334kts
26-Oct-17 10:48 45.021051 -122.667268 3 11356ft 297kts
26-Oct-17 10:49 45.098109 -122.659833 3 10839ft 279kts
26-Oct-17 10:50 45.174105 -122.652167 4 9245ft 269kts
26-Oct-17 10:51 45.247974 -122.645368 353 8098ft 266kts
26-Oct-17 10:52 45.317004 -122.680302 340 7090ft 262kts
26-Oct-17 10:53 45.385297 -122.716879 344 7034ft 263kts
26-Oct-17 10:54 45.455816 -122.743752 345 5529ft 260kts
26-Oct-17 10:55 45.525100 -122.769377 345 4162ft 253kts
26-Oct-17 10:56 45.585680 -122.791419 345 4017ft 196kts
26-Oct-17 10:57 45.637583 -122.810134 345 2845ft 192kts
26-Oct-17 10:58 45.656597 -122.768062 124 2479ft 174kts
26-Oct-17 10:59 45.628540 -122.712370 125 2062ft 177kts
26-Oct-17 11:00 45.598886 -122.654308 129 2507ft 199kts
26-Oct-17 11:01 45.557636 -122.674643 276 3142ft 202kts
26-Oct-17 11:02 45.570831 -122.751405 293 3155ft 198kts
26-Oct-17 11:03 45.593609 -122.823056 295 3151ft 198kts
26-Oct-17 11:04 45.616740 -122.894182 295 3146ft 198kts
26-Oct-17 11:05 45.645519 -122.958876 345 3137ft 197kts
26-Oct-17 11:06 45.691787 -122.924225 76 3167ft 201kts
26-Oct-17 11:07 45.686221 -122.850395 116 3137ft 176kts
26-Oct-17 11:08 45.662813 -122.794868 120 2846ft 152kts
26-Oct-17 11:09 45.642683 -122.744079 118 1997ft 146kts
26-Oct-17 11:10 45.623168 -122.693590 118 1195ft 145kts
26-Oct-17 11:11 45.603712 -122.643689 118 415ft 140kts
26-Oct-17 11:12 45.587074 -122.600873 118 31ft 65kts
26-Oct-17 11:13 45.582043 -122.594104 269 31ft 13kts
26-Oct-17 11:14 45.582510 -122.597502 35 31ft 0kts
26-Oct-17 11:15 45.582510 -122.597502 35 31ft 0kts
26-Oct-17 11:16 45.582510 -122.597502 35 31ft 0kts
26-Oct-17 11:17 45.582510 -122.597502 35 31ft 0kts
26-Oct-17 11:18 45.582510 -122.597502 35 31ft 0kts
26-Oct-17 11:19 45.582510 -122.597502 35 31ft 0kts
26-Oct-17 11:20 45.582510 -122.597502 35 31ft 0kts
26-Oct-17 11:21 45.582510 -122.597502 35 31ft 0kts
26-Oct-17 11:22 45.582510 -122.597502 35 31ft 0kts
26-Oct-17 11:23 45.582510 -122.597502 35 31ft 0kts
26-Oct-17 11:24 45.582510 -122.597502 35 31ft 0kts
26-Oct-17 11:25 45.582510 -122.597502 35 31ft 0kts
26-Oct-17 11:26 45.582510 -122.597502 35 31ft 0kts
26-Oct-17 11:27 45.582510 -122.597502 35 31ft 0kts

Navigation Log

Ident Type
Flight plan parsing failed, navigation log unavailable